createdAt,value
2023-03-19T00:02:17.013Z,2.85
2023-03-19T00:04:47.365Z,3.08
2023-03-19T00:07:15.852Z,2.78
2023-03-19T00:09:43.806Z,3.10
2023-03-19T00:12:12.107Z,3.03
2023-03-19T00:14:39.908Z,3.35
2023-03-19T00:17:07.888Z,3.17
2023-03-19T00:19:35.734Z,2.83
2023-03-19T00:22:05.153Z,2.45
2023-03-19T00:24:33.222Z,3.05
2023-03-19T00:27:01.138Z,2.42
2023-03-19T00:29:28.924Z,2.55
2023-03-19T00:31:56.839Z,2.75
2023-03-19T00:34:24.641Z,2.88
2023-03-19T00:36:52.431Z,2.80
2023-03-19T00:39:21.704Z,2.97
2023-03-19T00:41:50.608Z,2.92
2023-03-19T00:44:19.203Z,3.42
2023-03-19T00:46:47.118Z,3.22
2023-03-19T00:49:15.371Z,3.30
2023-03-19T00:51:44.058Z,3.10
2023-03-19T00:54:13.356Z,2.75
2023-03-19T00:56:42.461Z,3.28
2023-03-19T00:59:10.349Z,3.00
2023-03-19T01:01:38.301Z,2.95
2023-03-19T01:04:06.323Z,3.10
2023-03-19T01:06:34.492Z,3.17
2023-03-19T01:09:02.282Z,2.65
2023-03-19T01:11:30.083Z,3.72
2023-03-19T01:13:59.210Z,3.20
2023-03-19T01:16:27.150Z,2.90
2023-03-19T01:18:55.002Z,3.90
2023-03-19T01:21:23.069Z,3.35
2023-03-19T01:23:51.876Z,3.15
2023-03-19T01:26:20.738Z,3.85
2023-03-19T01:28:51.134Z,3.70
2023-03-19T01:31:22.868Z,3.63
2023-03-19T01:34:06.453Z,3.53
2023-03-19T01:36:42.868Z,3.63
2023-03-19T01:39:11.689Z,3.38
2023-03-19T01:41:39.866Z,2.70
2023-03-19T01:44:29.883Z,3.00
2023-03-19T01:47:20.563Z,2.67
2023-03-19T01:50:07.543Z,3.17
2023-03-19T01:52:36.336Z,2.90
2023-03-19T01:55:27.873Z,3.53
2023-03-19T01:58:12.931Z,3.13
2023-03-19T02:01:01.811Z,2.92
2023-03-19T02:03:36.341Z,3.10
2023-03-19T02:06:20.900Z,2.72
2023-03-19T02:08:49.802Z,3.17
2023-03-19T02:11:17.715Z,2.88
2023-03-19T02:13:47.102Z,3.05
2023-03-19T02:16:16.459Z,2.67
2023-03-19T02:18:46.163Z,2.75
2023-03-19T02:21:17.540Z,2.78
2023-03-19T02:23:50.989Z,2.72
2023-03-19T02:26:25.816Z,2.85
2023-03-19T02:28:59.743Z,2.70
2023-03-19T02:31:32.761Z,2.90
2023-03-19T02:34:02.543Z,2.42
2023-03-19T02:36:37.202Z,2.47
2023-03-19T02:39:08.608Z,2.28
2023-03-19T02:41:40.675Z,2.50
2023-03-19T02:44:13.132Z,2.78
2023-03-19T02:46:40.984Z,2.55
2023-03-19T02:49:08.833Z,2.40
2023-03-19T02:51:37.488Z,2.33
2023-03-19T02:54:05.962Z,2.35
2023-03-19T02:56:33.775Z,2.00
2023-03-19T02:59:03.209Z,2.20
2023-03-19T03:01:31.087Z,2.20
2023-03-19T03:03:58.913Z,2.38
2023-03-19T03:06:26.715Z,2.42
2023-03-19T03:08:54.429Z,2.22
2023-03-19T03:11:22.754Z,2.05
2023-03-19T03:13:50.715Z,2.30
2023-03-19T03:16:19.933Z,1.60
2023-03-19T03:18:47.739Z,1.80
2023-03-19T03:21:15.528Z,1.70
2023-03-19T03:23:43.258Z,1.77
2023-03-19T03:26:11.126Z,1.60
2023-03-19T03:28:39.091Z,1.85
2023-03-19T03:31:07.906Z,2.20
2023-03-19T03:33:37.481Z,2.10
2023-03-19T03:36:05.714Z,1.85
2023-03-19T03:38:34.613Z,1.75
2023-03-19T03:41:02.387Z,1.35
2023-03-19T03:43:30.453Z,2.00
2023-03-19T03:46:00.129Z,1.70
2023-03-19T03:48:28.553Z,1.75
2023-03-19T03:50:57.714Z,1.20
2023-03-19T03:53:28.343Z,2.22
2023-03-19T03:55:56.206Z,1.88
2023-03-19T03:58:26.388Z,1.80
2023-03-19T04:00:54.682Z,1.83
2023-03-19T04:03:24.179Z,2.13
2023-03-19T04:05:52.474Z,1.90
2023-03-19T04:08:24.597Z,1.98
2023-03-19T04:10:52.375Z,1.58
2023-03-19T04:13:20.388Z,1.75
2023-03-19T04:15:48.618Z,1.88
2023-03-19T04:18:16.810Z,1.70
2023-03-19T04:20:44.676Z,1.80
2023-03-19T04:23:12.525Z,1.90
2023-03-19T04:25:42.116Z,1.90
2023-03-19T04:28:10.343Z,2.00
2023-03-19T04:30:38.569Z,2.00
2023-03-19T04:33:06.886Z,1.67
2023-03-19T04:35:35.346Z,2.03
2023-03-19T04:38:03.184Z,1.85
2023-03-19T04:40:31.729Z,2.00
2023-03-19T04:43:00.988Z,1.98
2023-03-19T04:45:36.616Z,2.47
2023-03-19T04:48:04.589Z,2.08
2023-03-19T04:50:35.608Z,1.80
2023-03-19T04:53:04.192Z,1.88
2023-03-19T04:55:32.444Z,1.73
2023-03-19T04:58:16.563Z,1.58
2023-03-19T05:00:47.407Z,1.90
2023-03-19T05:03:19.525Z,1.80
2023-03-19T05:05:48.706Z,1.77
2023-03-19T05:08:16.809Z,2.13
2023-03-19T05:10:44.726Z,1.70
2023-03-19T05:13:12.669Z,1.80
2023-03-19T05:15:48.469Z,1.60
2023-03-19T05:18:16.548Z,1.98
2023-03-19T05:20:45.542Z,1.75
2023-03-19T05:23:22.819Z,1.90
2023-03-19T05:26:16.781Z,2.58
2023-03-19T05:29:03.616Z,2.30
2023-03-19T05:31:42.200Z,2.03
2023-03-19T05:34:10.208Z,1.70
2023-03-19T05:36:38.140Z,1.80
2023-03-19T05:39:11.344Z,1.83
2023-03-19T05:41:41.975Z,1.63
2023-03-19T05:44:10.051Z,1.80
2023-03-19T05:47:02.283Z,1.70
2023-03-19T05:49:33.633Z,1.70
2023-03-19T05:52:01.626Z,1.70
2023-03-19T05:54:30.767Z,1.65
2023-03-19T05:57:09.002Z,1.90
2023-03-19T06:00:02.702Z,1.73
2023-03-19T06:02:44.241Z,1.63
2023-03-19T06:05:33.917Z,1.67
2023-03-19T06:08:09.784Z,2.05
2023-03-19T06:10:59.627Z,1.75
2023-03-19T06:13:28.012Z,1.83
2023-03-19T06:16:16.766Z,2.00
2023-03-19T06:18:52.795Z,2.10
2023-03-19T06:21:20.852Z,2.03
2023-03-19T06:23:48.609Z,2.10
2023-03-19T06:26:20.631Z,2.17
2023-03-19T06:28:56.400Z,2.28
2023-03-19T06:31:24.516Z,1.75
2023-03-19T06:33:57.059Z,2.05
2023-03-19T06:36:30.319Z,1.85
2023-03-19T06:38:58.230Z,1.52
2023-03-19T06:41:26.126Z,1.77
2023-03-19T06:43:57.891Z,1.83
2023-03-19T06:46:25.619Z,1.80
2023-03-19T06:48:53.371Z,2.22
2023-03-19T06:51:22.525Z,1.85
2023-03-19T06:53:50.742Z,2.00
2023-03-19T06:56:18.467Z,1.90
2023-03-19T06:58:46.287Z,2.03
2023-03-19T07:01:14.109Z,1.60
2023-03-19T07:03:41.941Z,1.63
2023-03-19T07:06:09.688Z,1.92
2023-03-19T07:08:38.862Z,1.88
2023-03-19T07:11:08.210Z,1.60
2023-03-19T07:13:37.977Z,2.08
2023-03-19T07:16:07.026Z,1.65
2023-03-19T07:18:34.965Z,2.08
2023-03-19T07:21:03.017Z,1.70
2023-03-19T07:23:30.990Z,2.13
2023-03-19T07:26:00.304Z,2.03
2023-03-19T07:28:28.041Z,1.80
2023-03-19T07:30:56.255Z,2.15
2023-03-19T07:33:24.111Z,1.77
2023-03-19T07:35:51.967Z,2.10
2023-03-19T07:38:19.731Z,2.20
2023-03-19T07:41:00.964Z,1.98
2023-03-19T07:43:31.542Z,1.92
2023-03-19T07:45:59.547Z,2.20
2023-03-19T07:48:27.402Z,2.75
2023-03-19T07:50:55.220Z,2.30
2023-03-19T07:53:22.986Z,2.33
2023-03-19T07:55:50.978Z,2.20
2023-03-19T07:58:19.100Z,1.98
2023-03-19T08:00:48.251Z,2.03
2023-03-19T08:03:16.033Z,2.33
2023-03-19T08:05:43.791Z,2.10
2023-03-19T08:08:11.610Z,1.92
2023-03-19T08:10:39.796Z,2.10
2023-03-19T08:13:08.089Z,1.98
2023-03-19T08:15:35.870Z,2.40
2023-03-19T08:18:06.330Z,2.08
2023-03-19T08:20:34.508Z,2.22
2023-03-19T08:23:02.837Z,2.33
2023-03-19T08:25:32.571Z,2.75
2023-03-19T08:28:01.089Z,3.20
2023-03-19T08:30:29.153Z,3.50
2023-03-19T08:32:57.184Z,2.88
2023-03-19T08:35:27.217Z,3.25
2023-03-19T08:37:55.401Z,3.40
2023-03-19T08:40:23.411Z,3.45
2023-03-19T08:42:51.199Z,3.33
2023-03-19T08:45:19.627Z,3.00
2023-03-19T08:47:47.490Z,3.22
2023-03-19T08:50:15.704Z,4.18
2023-03-19T08:52:44.804Z,3.50
2023-03-19T08:55:12.544Z,3.20
2023-03-19T08:57:40.328Z,3.30
2023-03-19T09:00:09.346Z,3.60
2023-03-19T09:02:37.155Z,3.47
2023-03-19T09:05:05.309Z,4.38
2023-03-19T09:07:33.052Z,3.65
2023-03-19T09:10:02.201Z,3.50
2023-03-19T09:12:29.968Z,2.78
2023-03-19T09:14:57.716Z,3.00
2023-03-19T09:17:25.588Z,2.47
2023-03-19T09:19:53.339Z,2.50
2023-03-19T09:22:21.068Z,2.85
2023-03-19T09:24:48.755Z,2.80
2023-03-19T09:27:18.988Z,3.03
2023-03-19T09:29:46.816Z,3.25
2023-03-19T09:32:14.606Z,3.28
2023-03-19T09:34:42.328Z,2.80
2023-03-19T09:37:11.643Z,2.50
2023-03-19T09:39:39.387Z,2.70
2023-03-19T09:42:31.006Z,2.38
2023-03-19T09:44:58.969Z,2.25
2023-03-19T09:47:28.961Z,2.50
2023-03-19T09:49:59.260Z,2.55
2023-03-19T09:52:36.173Z,2.75
2023-03-19T09:55:12.228Z,2.47
2023-03-19T09:57:41.493Z,2.97
2023-03-19T10:00:22.748Z,2.45
2023-03-19T10:02:55.675Z,3.03
2023-03-19T10:05:32.470Z,2.58
2023-03-19T10:08:18.810Z,2.30
2023-03-19T10:10:52.402Z,2.33
2023-03-19T10:13:34.149Z,2.35
2023-03-19T10:16:03.453Z,2.00
2023-03-19T10:18:34.741Z,2.28
2023-03-19T10:21:05.293Z,1.92
2023-03-19T10:23:40.744Z,2.40
2023-03-19T10:26:13.758Z,2.42
2023-03-19T10:28:47.276Z,2.47
2023-03-19T10:31:26.826Z,2.88
2023-03-19T10:34:06.057Z,3.10
2023-03-19T10:36:37.386Z,3.28
2023-03-19T10:39:07.689Z,3.55
2023-03-19T10:41:44.542Z,3.50
2023-03-19T10:44:27.122Z,4.20
2023-03-19T10:46:58.727Z,3.83
2023-03-19T10:49:26.996Z,3.97
2023-03-19T10:51:58.422Z,4.22
2023-03-19T10:54:27.591Z,4.38
2023-03-19T10:56:57.393Z,4.65
2023-03-19T10:59:32.864Z,5.07
2023-03-19T11:02:03.552Z,4.35
2023-03-19T11:04:32.298Z,4.25
2023-03-19T11:07:09.750Z,4.07
2023-03-19T11:09:39.858Z,4.80
2023-03-19T11:12:17.693Z,4.60
2023-03-19T11:14:48.985Z,4.30
2023-03-19T11:17:26.314Z,4.35
2023-03-19T11:19:56.745Z,4.95
2023-03-19T11:22:27.049Z,4.03
2023-03-19T11:24:57.100Z,3.58
2023-03-19T11:27:29.710Z,3.58
2023-03-19T11:29:59.246Z,3.00
2023-03-19T11:32:51.810Z,3.13
2023-03-19T11:35:22.922Z,3.70
2023-03-19T11:37:55.679Z,2.85
2023-03-19T11:40:34.149Z,3.20
2023-03-19T11:43:17.045Z,3.83
2023-03-19T11:45:56.027Z,3.78
2023-03-19T11:48:36.161Z,3.50
2023-03-19T11:51:09.574Z,3.60
2023-03-19T11:53:43.408Z,3.13
2023-03-19T11:56:22.640Z,3.30
2023-03-19T11:59:13.909Z,4.05
2023-03-19T12:02:18.899Z,4.60
2023-03-19T12:05:01.690Z,4.13
2023-03-19T12:07:39.285Z,3.50
2023-03-19T12:10:27.062Z,3.40
2023-03-19T12:13:01.402Z,3.17
2023-03-19T12:15:37.444Z,2.33
2023-03-19T12:18:16.795Z,2.30
2023-03-19T12:20:57.459Z,2.83
2023-03-19T12:23:37.620Z,2.30
2023-03-19T12:26:08.875Z,2.17
2023-03-19T12:28:42.647Z,13.13
2023-03-19T12:31:31.282Z,3.75
2023-03-19T12:34:14.897Z,1.58
2023-03-19T12:36:49.715Z,1.20
2023-03-19T12:39:22.844Z,3.42
2023-03-19T12:41:52.529Z,1.42
2023-03-19T12:44:22.600Z,1.40
2023-03-19T12:46:57.895Z,1.50
2023-03-19T12:49:32.500Z,1.50
2023-03-19T12:52:04.620Z,1.60
2023-03-19T12:54:38.458Z,2.15
2023-03-19T12:57:13.393Z,1.70
2023-03-19T12:59:49.410Z,1.05
2023-03-19T13:02:23.838Z,0.90
2023-03-19T13:04:57.400Z,0.50
2023-03-19T13:07:32.204Z,0.50
2023-03-19T13:10:04.520Z,0.77
2023-03-19T13:12:35.765Z,0.50
2023-03-19T13:15:10.750Z,0.70
2023-03-19T13:17:47.451Z,0.93
2023-03-19T13:20:21.398Z,0.90
2023-03-19T13:22:55.540Z,1.52
2023-03-19T13:25:28.829Z,1.45
2023-03-19T13:27:57.107Z,1.27
2023-03-19T13:30:26.152Z,1.60
2023-03-19T13:33:03.255Z,1.92
2023-03-19T13:35:41.049Z,1.40
2023-03-19T13:38:19.804Z,1.55
2023-03-19T13:40:49.757Z,1.75
2023-03-19T13:43:43.703Z,1.85
2023-03-19T13:46:31.828Z,1.80
2023-03-19T13:49:10.688Z,2.00
2023-03-19T13:51:39.790Z,2.60
2023-03-19T13:54:16.355Z,3.00
2023-03-19T13:57:06.859Z,2.95
2023-03-19T13:59:36.208Z,3.28
2023-03-19T14:02:25.450Z,3.17
2023-03-19T14:05:01.918Z,3.85
2023-03-19T14:07:36.968Z,4.20
2023-03-19T14:10:08.550Z,3.72
2023-03-19T14:12:39.828Z,4.43
2023-03-19T14:15:18.133Z,4.82
2023-03-19T14:17:54.804Z,4.00
2023-03-19T14:20:35.482Z,4.47
2023-03-19T14:23:23.819Z,4.80
2023-03-19T14:26:05.184Z,4.75
2023-03-19T14:28:43.540Z,5.00
2023-03-19T14:31:22.788Z,4.60
2023-03-19T14:33:56.882Z,3.90
2023-03-19T14:36:25.099Z,3.03
2023-03-19T14:38:57.576Z,2.35
2023-03-19T14:41:28.531Z,2.35
2023-03-19T14:44:14.516Z,2.70
2023-03-19T14:47:04.010Z,2.78
2023-03-19T14:50:17.470Z,2.47
2023-03-19T14:52:48.608Z,2.70
2023-03-19T14:55:18.411Z,3.17
2023-03-19T14:57:46.453Z,3.25
2023-03-19T15:00:17.355Z,3.40
2023-03-19T15:02:48.393Z,3.38
2023-03-19T15:05:23.510Z,3.75
2023-03-19T15:07:55.470Z,4.07
2023-03-19T15:10:28.631Z,4.00
2023-03-19T15:13:14.933Z,3.92
2023-03-19T15:15:59.479Z,3.38
2023-03-19T15:18:28.404Z,3.40
2023-03-19T15:20:57.573Z,4.22
2023-03-19T15:23:28.631Z,4.03
2023-03-19T15:26:01.210Z,4.13
2023-03-19T15:28:30.591Z,3.75
2023-03-19T15:31:12.794Z,4.10
2023-03-19T15:33:46.849Z,4.72
2023-03-19T15:36:19.712Z,4.30
2023-03-19T15:38:55.876Z,3.45
2023-03-19T15:41:26.765Z,3.10
2023-03-19T15:43:56.326Z,2.20
2023-03-19T15:46:27.414Z,1.50
2023-03-19T15:48:59.060Z,1.30
2023-03-19T15:51:27.771Z,1.30
2023-03-19T15:53:56.283Z,1.88
2023-03-19T15:56:25.915Z,2.17
2023-03-19T15:58:58.253Z,2.00
2023-03-19T16:01:27.966Z,1.70
2023-03-19T16:03:59.286Z,2.20
2023-03-19T16:06:30.365Z,1.90
2023-03-19T16:09:14.422Z,2.47
2023-03-19T16:11:45.552Z,2.47
2023-03-19T16:14:24.171Z,19.92
2023-03-19T16:16:52.953Z,13.45
2023-03-19T16:19:36.228Z,11.43
2023-03-19T16:22:12.139Z,5.82
2023-03-19T16:24:42.503Z,4.85
2023-03-19T16:27:15.288Z,3.60
2023-03-19T16:29:44.379Z,3.92
2023-03-19T16:32:21.265Z,3.33
2023-03-19T16:34:52.105Z,3.58
2023-03-19T16:37:44.365Z,3.30
2023-03-19T16:40:44.293Z,3.00
2023-03-19T16:43:18.885Z,3.63
2023-03-19T16:45:51.302Z,3.30
2023-03-19T16:48:19.642Z,2.97
2023-03-19T16:50:48.452Z,2.97
2023-03-19T16:53:23.341Z,3.25
2023-03-19T16:55:52.796Z,3.08
2023-03-19T16:58:30.078Z,3.67
2023-03-19T17:00:58.090Z,3.30
2023-03-19T17:03:26.574Z,3.47
2023-03-19T17:05:54.401Z,5.90
2023-03-19T17:08:23.265Z,23.40
2023-03-19T17:10:52.985Z,36.42
2023-03-19T17:13:27.964Z,6.03
2023-03-19T17:15:58.106Z,9.75
2023-03-19T17:18:29.144Z,6.15
2023-03-19T17:20:59.801Z,3.20
2023-03-19T17:23:27.956Z,3.40
2023-03-19T17:25:56.017Z,2.97
2023-03-19T17:28:25.734Z,2.95
2023-03-19T17:30:53.957Z,3.30
2023-03-19T17:33:24.791Z,3.55
2023-03-19T17:35:53.467Z,3.55
2023-03-19T17:38:23.267Z,3.70
2023-03-19T17:40:51.267Z,3.60
2023-03-19T17:43:19.181Z,4.57
2023-03-19T17:45:49.290Z,4.63
2023-03-19T17:48:22.426Z,4.78
2023-03-19T17:50:51.350Z,5.40
2023-03-19T17:53:19.706Z,4.30
2023-03-19T17:55:47.585Z,5.05
2023-03-19T17:58:17.702Z,5.28
2023-03-19T18:00:46.052Z,4.90
2023-03-19T18:03:17.671Z,6.75
2023-03-19T18:05:45.938Z,5.93
2023-03-19T18:08:16.834Z,4.70
2023-03-19T18:10:44.718Z,5.40
2023-03-19T18:13:12.798Z,6.00
2023-03-19T18:15:43.968Z,5.63
2023-03-19T18:18:19.410Z,5.55
2023-03-19T18:20:48.395Z,5.70
2023-03-19T18:23:16.712Z,5.55
2023-03-19T18:25:45.958Z,5.53
2023-03-19T18:28:13.929Z,5.57
2023-03-19T18:30:43.023Z,6.45
2023-03-19T18:33:16.811Z,6.00
2023-03-19T18:35:46.950Z,6.43
2023-03-19T18:38:18.036Z,6.82
2023-03-19T18:40:46.680Z,7.78
2023-03-19T18:43:16.327Z,6.88
2023-03-19T18:45:46.776Z,7.97
2023-03-19T18:48:22.014Z,6.80
2023-03-19T18:50:52.274Z,7.13
2023-03-19T18:53:20.287Z,7.80
2023-03-19T18:55:49.232Z,7.05
2023-03-19T18:58:21.407Z,7.30
2023-03-19T19:00:50.718Z,6.43
2023-03-19T19:03:21.854Z,6.93
2023-03-19T19:05:53.718Z,7.35
2023-03-19T19:08:21.933Z,6.40
2023-03-19T19:10:53.946Z,7.25
2023-03-19T19:13:25.970Z,7.65
2023-03-19T19:15:54.748Z,7.57
2023-03-19T19:18:25.018Z,6.78
2023-03-19T19:20:56.004Z,6.43
2023-03-19T19:23:26.702Z,8.60
2023-03-19T19:25:56.211Z,6.45
2023-03-19T19:28:27.823Z,6.63
2023-03-19T19:30:57.595Z,6.10
2023-03-19T19:33:27.697Z,5.88
2023-03-19T19:35:57.081Z,6.35
2023-03-19T19:38:24.927Z,6.10
2023-03-19T19:40:55.787Z,9.57
2023-03-19T19:43:26.624Z,9.18
2023-03-19T19:45:56.185Z,6.45
2023-03-19T19:48:26.260Z,6.20
2023-03-19T19:50:56.114Z,6.50
2023-03-19T19:53:27.423Z,6.40
2023-03-19T19:55:55.485Z,7.78
2023-03-19T19:58:25.918Z,8.57
2023-03-19T20:01:03.484Z,9.38
2023-03-19T20:03:34.203Z,8.32
2023-03-19T20:06:03.155Z,8.10
2023-03-19T20:08:32.800Z,9.40
2023-03-19T20:11:00.788Z,8.73
2023-03-19T20:13:32.627Z,9.80
2023-03-19T20:16:01.408Z,9.52
2023-03-19T20:18:33.251Z,8.80
2023-03-19T20:21:02.302Z,7.95
2023-03-19T20:23:30.694Z,7.25
2023-03-19T20:26:01.787Z,6.57
2023-03-19T20:28:34.024Z,7.18
2023-03-19T20:31:03.510Z,7.78
2023-03-19T20:33:32.318Z,8.57
2023-03-19T20:36:00.684Z,7.43
2023-03-19T20:38:29.363Z,7.97
2023-03-19T20:40:59.838Z,8.50
2023-03-19T20:43:30.284Z,9.20
2023-03-19T20:45:59.344Z,11.20
2023-03-19T20:48:27.937Z,10.73
2023-03-19T20:50:56.472Z,11.00
2023-03-19T20:53:24.624Z,11.07
2023-03-19T20:55:52.656Z,11.60
2023-03-19T20:58:27.480Z,10.88
2023-03-19T21:00:56.418Z,11.40
2023-03-19T21:03:27.113Z,11.20
2023-03-19T21:06:01.779Z,11.70
2023-03-19T21:08:32.417Z,11.63
2023-03-19T21:11:00.770Z,11.57
2023-03-19T21:13:30.232Z,11.55
2023-03-19T21:15:58.491Z,11.07
2023-03-19T21:18:26.552Z,10.93
2023-03-19T21:20:56.761Z,10.93
2023-03-19T21:23:30.055Z,11.93
2023-03-19T21:25:58.716Z,11.75
2023-03-19T21:28:32.618Z,11.93
2023-03-19T21:31:00.720Z,11.95
2023-03-19T21:33:30.778Z,12.60
2023-03-19T21:35:59.414Z,12.65
2023-03-19T21:38:28.054Z,12.10
2023-03-19T21:40:59.144Z,12.73
2023-03-19T21:43:34.070Z,11.93
2023-03-19T21:46:17.572Z,12.35
2023-03-19T21:48:51.225Z,13.48
2023-03-19T21:51:19.020Z,12.73
2023-03-19T21:53:47.610Z,13.73
2023-03-19T21:56:22.312Z,12.60
2023-03-19T21:58:53.319Z,13.48
2023-03-19T22:01:23.674Z,13.25
2023-03-19T22:03:52.314Z,12.88
2023-03-19T22:06:22.022Z,13.43
2023-03-19T22:08:51.540Z,14.40
2023-03-19T22:11:24.004Z,14.57
2023-03-19T22:13:53.643Z,14.20
2023-03-19T22:16:23.913Z,14.35
2023-03-19T22:18:53.191Z,14.93
2023-03-19T22:21:23.398Z,15.13
2023-03-19T22:23:52.418Z,15.55
2023-03-19T22:26:29.781Z,14.52
2023-03-19T22:29:01.976Z,15.60
2023-03-19T22:31:30.519Z,14.70
2023-03-19T22:33:58.544Z,15.07
2023-03-19T22:36:26.386Z,14.38
2023-03-19T22:38:54.266Z,14.70
2023-03-19T22:41:28.169Z,14.65
2023-03-19T22:43:57.531Z,14.88
2023-03-19T22:46:27.737Z,15.98
2023-03-19T22:48:55.820Z,14.48
2023-03-19T22:51:25.153Z,15.30
2023-03-19T22:53:53.595Z,16.25
2023-03-19T22:56:22.541Z,17.63
2023-03-19T22:58:50.698Z,17.30
2023-03-19T23:01:37.437Z,17.10
2023-03-19T23:04:22.643Z,17.80
2023-03-19T23:06:51.604Z,17.70
2023-03-19T23:09:22.049Z,18.13
2023-03-19T23:11:49.917Z,20.55
2023-03-19T23:14:29.051Z,20.58
2023-03-19T23:17:03.083Z,21.73
2023-03-19T23:19:32.768Z,23.20
2023-03-19T23:22:02.556Z,24.10
2023-03-19T23:24:31.086Z,25.35
2023-03-19T23:27:01.357Z,25.63
2023-03-19T23:29:32.406Z,24.75
2023-03-19T23:32:01.878Z,24.23
2023-03-19T23:34:29.676Z,24.67
2023-03-19T23:36:59.999Z,24.70
2023-03-19T23:39:28.869Z,26.27
2023-03-19T23:41:58.587Z,25.73
2023-03-19T23:44:29.213Z,27.65
2023-03-19T23:47:03.023Z,27.55
2023-03-19T23:49:33.133Z,28.60
2023-03-19T23:52:04.445Z,26.52
2023-03-19T23:54:34.494Z,28.17
2023-03-19T23:57:04.327Z,28.13
2023-03-19T23:59:35.610Z,27.30
